sensor_id;sensor_type;location;lat;lon;timestamp;pressure;altitude;pressure_sealevel;temperature;humidity
41624;BME280;27319;50.306;18.926;2023-07-29T00:02:54;97623.63;;;18.32;99.69
41624;BME280;27319;50.306;18.926;2023-07-29T00:06:55;97624.97;;;18.23;100.00
41624;BME280;27319;50.306;18.926;2023-07-29T00:10:36;97630.41;;;18.23;100.00
41624;BME280;27319;50.306;18.926;2023-07-29T00:14:36;97633.84;;;18.30;99.29
41624;BME280;27319;50.306;18.926;2023-07-29T00:18:37;97636.56;;;18.30;98.97
41624;BME280;27319;50.306;18.926;2023-07-29T00:22:38;97632.97;;;18.18;100.00
41624;BME280;27319;50.306;18.926;2023-07-29T00:26:39;97635.00;;;18.22;100.00
41624;BME280;27319;50.306;18.926;2023-07-29T00:30:40;97631.34;;;18.17;100.00
41624;BME280;27319;50.306;18.926;2023-07-29T00:34:40;97633.97;;;18.05;100.00
41624;BME280;27319;50.306;18.926;2023-07-29T00:38:21;97627.69;;;18.23;100.00
41624;BME280;27319;50.306;18.926;2023-07-29T00:41:42;97617.78;;;18.28;100.00
41624;BME280;27319;50.306;18.926;2023-07-29T00:45:43;97619.69;;;18.28;100.00
41624;BME280;27319;50.306;18.926;2023-07-29T00:49:44;97617.56;;;18.30;100.00
41624;BME280;27319;50.306;18.926;2023-07-29T00:53:45;97620.56;;;18.10;100.00
41624;BME280;27319;50.306;18.926;2023-07-29T00:57:45;97602.69;;;18.03;100.00
41624;BME280;27319;50.306;18.926;2023-07-29T01:01:46;97613.69;;;18.08;100.00
41624;BME280;27319;50.306;18.926;2023-07-29T01:05:14;97605.31;;;18.09;100.00
41624;BME280;27319;50.306;18.926;2023-07-29T01:16:53;97608.31;;;18.19;100.00
41624;BME280;27319;50.306;18.926;2023-07-29T01:20:54;97607.34;;;18.32;100.00
41624;BME280;27319;50.306;18.926;2023-07-29T01:24:54;97603.56;;;18.33;100.00
41624;BME280;27319;50.306;18.926;2023-07-29T01:28:56;97609.38;;;18.18;100.00
41624;BME280;27319;50.306;18.926;2023-07-29T01:33:14;97610.56;;;18.22;100.00
41624;BME280;27319;50.306;18.926;2023-07-29T01:36:52;97616.25;;;18.21;100.00
41624;BME280;27319;50.306;18.926;2023-07-29T01:40:14;97609.88;;;18.27;100.00
41624;BME280;27319;50.306;18.926;2023-07-29T01:44:15;97617.75;;;18.17;100.00
41624;BME280;27319;50.306;18.926;2023-07-29T01:48:16;97619.63;;;18.16;100.00
41624;BME280;27319;50.306;18.926;2023-07-29T01:52:17;97623.91;;;18.24;100.00
41624;BME280;27319;50.306;18.926;2023-07-29T01:55:53;97610.72;;;17.98;100.00
41624;BME280;27319;50.306;18.926;2023-07-29T01:59:14;97614.81;;;18.18;100.00
41624;BME280;27319;50.306;18.926;2023-07-29T02:03:15;97626.19;;;18.27;100.00
41624;BME280;27319;50.306;18.926;2023-07-29T02:07:16;97630.59;;;18.39;100.00
41624;BME280;27319;50.306;18.926;2023-07-29T02:11:17;97635.59;;;18.42;100.00
41624;BME280;27319;50.306;18.926;2023-07-29T02:15:18;97641.59;;;18.33;100.00
41624;BME280;27319;50.306;18.926;2023-07-29T02:19:18;97631.00;;;18.25;100.00
41624;BME280;27319;50.306;18.926;2023-07-29T02:23:19;97637.59;;;18.35;100.00
41624;BME280;27319;50.306;18.926;2023-07-29T02:27:20;97637.16;;;18.50;100.00
41624;BME280;27319;50.306;18.926;2023-07-29T02:31:36;97626.28;;;18.50;100.00
41624;BME280;27319;50.306;18.926;2023-07-29T02:35:37;97625.78;;;18.41;100.00
41624;BME280;27319;50.306;18.926;2023-07-29T02:39:38;97633.44;;;18.33;100.00
41624;BME280;27319;50.306;18.926;2023-07-29T02:43:39;97640.88;;;18.37;100.00
41624;BME280;27319;50.306;18.926;2023-07-29T02:47:40;97638.06;;;18.14;100.00
41624;BME280;27319;50.306;18.926;2023-07-29T02:51:40;97648.28;;;18.30;100.00
41624;BME280;27319;50.306;18.926;2023-07-29T02:55:42;97641.75;;;18.49;100.00
41624;BME280;27319;50.306;18.926;2023-07-29T02:59:42;97644.69;;;18.18;100.00
41624;BME280;27319;50.306;18.926;2023-07-29T03:03:30;97647.97;;;18.38;100.00
41624;BME280;27319;50.306;18.926;2023-07-29T03:06:51;97647.06;;;18.26;100.00
41624;BME280;27319;50.306;18.926;2023-07-29T03:10:52;97651.81;;;18.31;100.00
41624;BME280;27319;50.306;18.926;2023-07-29T03:14:52;97652.16;;;18.23;100.00
41624;BME280;27319;50.306;18.926;2023-07-29T03:18:53;97649.47;;;18.05;100.00
41624;BME280;27319;50.306;18.926;2023-07-29T03:22:54;97652.47;;;17.97;100.00
41624;BME280;27319;50.306;18.926;2023-07-29T03:26:55;97657.19;;;17.90;100.00
41624;BME280;27319;50.306;18.926;2023-07-29T03:30:56;97653.03;;;17.87;100.00
41624;BME280;27319;50.306;18.926;2023-07-29T03:34:56;97660.22;;;17.82;100.00
41624;BME280;27319;50.306;18.926;2023-07-29T03:38:37;97659.16;;;17.83;100.00
41624;BME280;27319;50.306;18.926;2023-07-29T03:41:40;97655.09;;;17.92;100.00
41624;BME280;27319;50.306;18.926;2023-07-29T03:45:01;97651.16;;;17.88;100.00
41624;BME280;27319;50.306;18.926;2023-07-29T03:49:02;97655.16;;;17.85;100.00
41624;BME280;27319;50.306;18.926;2023-07-29T03:53:03;97657.81;;;17.92;100.00
41624;BME280;27319;50.306;18.926;2023-07-29T03:56:44;97656.50;;;17.94;100.00
41624;BME280;27319;50.306;18.926;2023-07-29T03:59:45;97662.91;;;18.00;100.00
41624;BME280;27319;50.306;18.926;2023-07-29T04:02:46;97661.41;;;18.04;100.00
41624;BME280;27319;50.306;18.926;2023-07-29T04:06:07;97663.63;;;18.07;100.00
41624;BME280;27319;50.306;18.926;2023-07-29T04:10:08;97678.88;;;18.08;100.00
41624;BME280;27319;50.306;18.926;2023-07-29T04:13:56;97675.72;;;18.11;100.00
41624;BME280;27319;50.306;18.926;2023-07-29T04:16:57;97675.25;;;18.14;100.00
41624;BME280;27319;50.306;18.926;2023-07-29T04:19:58;97675.31;;;18.25;100.00
41624;BME280;27319;50.306;18.926;2023-07-29T04:22:59;97672.94;;;18.29;100.00
41624;BME280;27319;50.306;18.926;2023-07-29T04:26:20;97683.06;;;18.40;100.00
41624;BME280;27319;50.306;18.926;2023-07-29T04:30:21;97686.06;;;18.50;100.00
41624;BME280;27319;50.306;18.926;2023-07-29T04:34:22;97674.63;;;18.59;100.00
41624;BME280;27319;50.306;18.926;2023-07-29T04:38:06;97684.22;;;18.62;100.00
41624;BME280;27319;50.306;18.926;2023-07-29T04:41:07;97673.69;;;18.65;100.00
41624;BME280;27319;50.306;18.926;2023-07-29T04:44:29;97678.13;;;18.78;100.00
41624;BME280;27319;50.306;18.926;2023-07-29T04:48:30;97673.13;;;18.75;100.00
41624;BME280;27319;50.306;18.926;2023-07-29T04:52:11;97678.94;;;18.78;100.00
41624;BME280;27319;50.306;18.926;2023-07-29T04:55:32;97679.78;;;18.90;100.00
41624;BME280;27319;50.306;18.926;2023-07-29T04:59:33;97689.38;;;18.93;100.00
41624;BME280;27319;50.306;18.926;2023-07-29T05:03:33;97687.63;;;18.98;100.00
41624;BME280;27319;50.306;18.926;2023-07-29T05:07:34;97689.84;;;19.01;100.00
41624;BME280;27319;50.306;18.926;2023-07-29T05:11:35;97699.78;;;19.07;100.00
41624;BME280;27319;50.306;18.926;2023-07-29T05:15:36;97696.13;;;19.13;100.00
41624;BME280;27319;50.306;18.926;2023-07-29T05:19:37;97700.06;;;19.29;100.00
41624;BME280;27319;50.306;18.926;2023-07-29T05:23:37;97712.38;;;19.31;100.00
41624;BME280;27319;50.306;18.926;2023-07-29T05:27:38;97718.31;;;19.40;100.00
41624;BME280;27319;50.306;18.926;2023-07-29T05:31:39;97715.13;;;19.43;100.00
41624;BME280;27319;50.306;18.926;2023-07-29T05:35:02;97708.97;;;19.59;100.00
41624;BME280;27319;50.306;18.926;2023-07-29T05:38:42;97714.41;;;19.59;100.00
41624;BME280;27319;50.306;18.926;2023-07-29T05:42:03;97708.84;;;19.65;100.00
41624;BME280;27319;50.306;18.926;2023-07-29T05:45:05;97713.69;;;19.63;100.00
41624;BME280;27319;50.306;18.926;2023-07-29T05:48:06;97716.78;;;19.67;100.00
41624;BME280;27319;50.306;18.926;2023-07-29T05:51:08;97711.44;;;19.72;100.00
41624;BME280;27319;50.306;18.926;2023-07-29T05:54:28;97714.06;;;19.78;100.00
41624;BME280;27319;50.306;18.926;2023-07-29T05:58:17;97713.66;;;19.86;100.00
41624;BME280;27319;50.306;18.926;2023-07-29T06:01:38;97721.22;;;19.96;100.00
41624;BME280;27319;50.306;18.926;2023-07-29T06:05:19;97725.25;;;20.05;100.00
41624;BME280;27319;50.306;18.926;2023-07-29T06:08:40;97729.78;;;20.11;99.70
41624;BME280;27319;50.306;18.926;2023-07-29T06:12:40;97729.50;;;20.24;99.84
41624;BME280;27319;50.306;18.926;2023-07-29T06:16:41;97737.88;;;20.34;98.64
41624;BME280;27319;50.306;18.926;2023-07-29T06:20:42;97739.44;;;20.30;99.10
41624;BME280;27319;50.306;18.926;2023-07-29T06:24:43;97737.03;;;20.45;98.02
41624;BME280;27319;50.306;18.926;2023-07-29T06:28:24;97739.34;;;20.53;98.19
41624;BME280;27319;50.306;18.926;2023-07-29T06:31:45;97739.38;;;20.69;98.58
41624;BME280;27319;50.306;18.926;2023-07-29T06:35:25;97735.69;;;21.53;96.21
41624;BME280;27319;50.306;18.926;2023-07-29T06:38:48;97753.84;;;21.26;95.48
41624;BME280;27319;50.306;18.926;2023-07-29T06:42:10;97752.91;;;21.04;94.00
41624;BME280;27319;50.306;18.926;2023-07-29T06:45:31;97748.53;;;21.19;92.37
41624;BME280;27319;50.306;18.926;2023-07-29T06:49:31;97753.25;;;21.24;93.39
41624;BME280;27319;50.306;18.926;2023-07-29T06:53:12;97751.81;;;21.05;94.23
41624;BME280;27319;50.306;18.926;2023-07-29T06:56:33;97748.28;;;21.37;96.34
41624;BME280;27319;50.306;18.926;2023-07-29T07:00:14;97755.81;;;21.14;92.08
41624;BME280;27319;50.306;18.926;2023-07-29T07:03:35;97753.91;;;21.14;92.47
41624;BME280;27319;50.306;18.926;2023-07-29T07:07:36;97742.75;;;20.88;92.71
41624;BME280;27319;50.306;18.926;2023-07-29T07:11:18;97746.19;;;20.95;91.63
41624;BME280;27319;50.306;18.926;2023-07-29T07:14:39;97755.41;;;21.05;90.84
41624;BME280;27319;50.306;18.926;2023-07-29T07:18:20;97752.38;;;21.51;92.99
41624;BME280;27319;50.306;18.926;2023-07-29T07:21:43;97741.50;;;21.40;90.33
41624;BME280;27319;50.306;18.926;2023-07-29T07:25:44;97738.44;;;21.53;90.14
41624;BME280;27319;50.306;18.926;2023-07-29T07:29:44;97737.88;;;21.84;91.93
41624;BME280;27319;50.306;18.926;2023-07-29T07:33:25;97754.91;;;22.29;92.36
41624;BME280;27319;50.306;18.926;2023-07-29T07:36:46;97755.59;;;22.41;86.43
41624;BME280;27319;50.306;18.926;2023-07-29T07:39:55;97759.94;;;22.58;86.99
41624;BME280;27319;50.306;18.926;2023-07-29T07:43:16;97756.47;;;23.16;87.26
41624;BME280;27319;50.306;18.926;2023-07-29T07:47:16;97756.41;;;22.63;82.25
41624;BME280;27319;50.306;18.926;2023-07-29T07:50:37;97759.06;;;22.53;86.94
41624;BME280;27319;50.306;18.926;2023-07-29T07:54:18;97757.25;;;22.42;84.27
41624;BME280;27319;50.306;18.926;2023-07-29T07:57:20;97754.78;;;22.62;82.89
41624;BME280;27319;50.306;18.926;2023-07-29T08:00:42;97749.94;;;22.47;81.52
41624;BME280;27319;50.306;18.926;2023-07-29T08:04:42;97748.75;;;22.60;84.22
41624;BME280;27319;50.306;18.926;2023-07-29T08:08:43;97742.66;;;22.53;81.27
41624;BME280;27319;50.306;18.926;2023-07-29T08:12:24;97745.09;;;22.76;82.63
41624;BME280;27319;50.306;18.926;2023-07-29T08:16:25;97736.66;;;22.82;81.45
41624;BME280;27319;50.306;18.926;2023-07-29T08:20:06;97741.03;;;23.05;81.30
41624;BME280;27319;50.306;18.926;2023-07-29T08:23:07;97738.13;;;22.90;79.12
41624;BME280;27319;50.306;18.926;2023-07-29T08:26:12;97740.72;;;22.75;79.71
41624;BME280;27319;50.306;18.926;2023-07-29T08:29:13;97739.56;;;22.71;79.74
41624;BME280;27319;50.306;18.926;2023-07-29T08:32:14;97746.03;;;22.86;80.64
41624;BME280;27319;50.306;18.926;2023-07-29T08:38:56;97743.28;;;23.13;79.50
41624;BME280;27319;50.306;18.926;2023-07-29T08:42:02;97747.34;;;23.37;77.73
41624;BME280;27319;50.306;18.926;2023-07-29T08:45:07;97741.81;;;23.27;78.38
41624;BME280;27319;50.306;18.926;2023-07-29T08:48:10;97732.56;;;23.33;77.60
41624;BME280;27319;50.306;18.926;2023-07-29T08:51:12;97730.88;;;23.27;76.27
41624;BME280;27319;50.306;18.926;2023-07-29T08:54:13;97728.81;;;23.44;76.50
41624;BME280;27319;50.306;18.926;2023-07-29T08:57:34;97724.13;;;23.81;76.85
41624;BME280;27319;50.306;18.926;2023-07-29T09:01:15;97724.97;;;23.81;73.67
41624;BME280;27319;50.306;18.926;2023-07-29T09:04:16;97721.94;;;23.83;76.15
41624;BME280;27319;50.306;18.926;2023-07-29T09:07:19;97726.03;;;24.17;70.47
41624;BME280;27319;50.306;18.926;2023-07-29T09:10:40;97726.09;;;24.32;74.39
41624;BME280;27319;50.306;18.926;2023-07-29T09:14:41;97717.03;;;24.31;72.24
41624;BME280;27319;50.306;18.926;2023-07-29T09:18:09;97717.56;;;24.23;71.63
41624;BME280;27319;50.306;18.926;2023-07-29T09:21:50;97729.72;;;24.47;69.52
41624;BME280;27319;50.306;18.926;2023-07-29T09:24:51;97716.00;;;24.42;72.59
41624;BME280;27319;50.306;18.926;2023-07-29T09:27:52;97716.28;;;24.46;72.10
41624;BME280;27319;50.306;18.926;2023-07-29T09:31:18;97723.41;;;24.47;71.65
41624;BME280;27319;50.306;18.926;2023-07-29T09:34:20;97718.72;;;24.37;70.85
41624;BME280;27319;50.306;18.926;2023-07-29T09:37:22;97720.25;;;24.75;69.96
41624;BME280;27319;50.306;18.926;2023-07-29T09:40:23;97707.69;;;24.94;67.86
41624;BME280;27319;50.306;18.926;2023-07-29T09:43:34;97706.78;;;24.63;68.29
41624;BME280;27319;50.306;18.926;2023-07-29T09:46:36;97709.84;;;24.77;71.35
41624;BME280;27319;50.306;18.926;2023-07-29T09:49:57;97705.50;;;25.56;65.59
41624;BME280;27319;50.306;18.926;2023-07-29T09:53:45;97703.06;;;25.49;65.61
41624;BME280;27319;50.306;18.926;2023-07-29T09:57:45;97695.06;;;25.13;63.90
41624;BME280;27319;50.306;18.926;2023-07-29T10:01:45;97697.31;;;25.46;63.18
41624;BME280;27319;50.306;18.926;2023-07-29T10:05:46;97695.31;;;25.86;63.42
41624;BME280;27319;50.306;18.926;2023-07-29T10:09:47;97687.81;;;26.27;62.04
41624;BME280;27319;50.306;18.926;2023-07-29T10:13:48;97691.13;;;26.19;61.68
41624;BME280;27319;50.306;18.926;2023-07-29T10:17:49;97693.03;;;26.23;59.74
41624;BME280;27319;50.306;18.926;2023-07-29T10:21:50;97686.69;;;26.28;61.25
41624;BME280;27319;50.306;18.926;2023-07-29T10:25:38;97677.53;;;27.01;63.14
41624;BME280;27319;50.306;18.926;2023-07-29T10:28:47;97675.75;;;27.20;62.69
41624;BME280;27319;50.306;18.926;2023-07-29T10:32:08;97686.91;;;27.38;57.93
41624;BME280;27319;50.306;18.926;2023-07-29T10:36:09;97689.59;;;26.51;61.55
41624;BME280;27319;50.306;18.926;2023-07-29T10:39:54;97681.53;;;26.11;63.53
41624;BME280;27319;50.306;18.926;2023-07-29T10:43:08;97696.88;;;26.86;59.35
41624;BME280;27319;50.306;18.926;2023-07-29T10:46:22;97694.53;;;27.46;57.80
41624;BME280;27319;50.306;18.926;2023-07-29T10:49:23;97685.75;;;27.73;56.78
41624;BME280;27319;50.306;18.926;2023-07-29T10:52:40;97682.91;;;27.21;57.49
41624;BME280;27319;50.306;18.926;2023-07-29T10:55:43;97683.63;;;27.65;60.08
41624;BME280;27319;50.306;18.926;2023-07-29T10:59:53;97682.94;;;27.49;57.57
41624;BME280;27319;50.306;18.926;2023-07-29T11:03:06;97685.66;;;27.16;59.22
41624;BME280;27319;50.306;18.926;2023-07-29T11:15:12;97684.59;;;28.72;56.11
41624;BME280;27319;50.306;18.926;2023-07-29T11:19:12;97689.53;;;28.99;54.42
41624;BME280;27319;50.306;18.926;2023-07-29T11:23:12;97672.28;;;28.47;51.89
41624;BME280;27319;50.306;18.926;2023-07-29T11:27:13;97668.69;;;27.71;57.25
41624;BME280;27319;50.306;18.926;2023-07-29T11:31:13;97661.09;;;28.93;54.57
41624;BME280;27319;50.306;18.926;2023-07-29T11:35:15;97652.78;;;28.38;53.53
41624;BME280;27319;50.306;18.926;2023-07-29T11:39:15;97664.25;;;28.68;52.68
41624;BME280;27319;50.306;18.926;2023-07-29T11:43:17;97656.78;;;29.24;54.52
41624;BME280;27319;50.306;18.926;2023-07-29T11:47:17;97650.31;;;27.61;55.71
41624;BME280;27319;50.306;18.926;2023-07-29T11:51:17;97659.44;;;28.32;57.61
41624;BME280;27319;50.306;18.926;2023-07-29T11:55:18;97650.88;;;29.12;54.31
41624;BME280;27319;50.306;18.926;2023-07-29T11:59:19;97657.03;;;29.41;52.88
41624;BME280;27319;50.306;18.926;2023-07-29T12:03:20;97652.69;;;29.22;50.80
41624;BME280;27319;50.306;18.926;2023-07-29T12:07:20;97644.22;;;29.64;50.23
41624;BME280;27319;50.306;18.926;2023-07-29T12:11:21;97648.25;;;29.98;52.16
41624;BME280;27319;50.306;18.926;2023-07-29T12:15:25;97633.78;;;29.74;50.22
41624;BME280;27319;50.306;18.926;2023-07-29T12:19:23;97643.19;;;30.32;54.16
41624;BME280;27319;50.306;18.926;2023-07-29T12:23:24;97622.97;;;29.46;48.72
41624;BME280;27319;50.306;18.926;2023-07-29T12:27:24;97619.16;;;28.91;52.97
41624;BME280;27319;50.306;18.926;2023-07-29T12:30:55;97625.88;;;28.85;53.99
41624;BME280;27319;50.306;18.926;2023-07-29T12:34:56;97615.47;;;29.46;54.86
41624;BME280;27319;50.306;18.926;2023-07-29T12:38:37;97617.31;;;29.83;49.44
41624;BME280;27319;50.306;18.926;2023-07-29T12:41:37;97611.81;;;30.37;48.54
41624;BME280;27319;50.306;18.926;2023-07-29T12:44:38;97614.75;;;30.00;50.60
41624;BME280;27319;50.306;18.926;2023-07-29T12:47:39;97609.84;;;30.37;49.75
41624;BME280;27319;50.306;18.926;2023-07-29T12:50:40;97604.28;;;30.51;47.34
41624;BME280;27319;50.306;18.926;2023-07-29T12:53:41;97605.13;;;30.51;49.36
41624;BME280;27319;50.306;18.926;2023-07-29T12:56:42;97600.50;;;30.96;48.47
41624;BME280;27319;50.306;18.926;2023-07-29T12:59:43;97605.66;;;30.26;48.86
41624;BME280;27319;50.306;18.926;2023-07-29T13:02:44;97602.06;;;30.39;49.99
41624;BME280;27319;50.306;18.926;2023-07-29T13:05:49;97608.78;;;30.60;49.00
41624;BME280;27319;50.306;18.926;2023-07-29T13:08:50;97618.72;;;30.61;48.08
41624;BME280;27319;50.306;18.926;2023-07-29T13:11:51;97612.66;;;30.86;49.81
41624;BME280;27319;50.306;18.926;2023-07-29T13:14:52;97606.22;;;30.99;47.12
41624;BME280;27319;50.306;18.926;2023-07-29T13:17:53;97609.41;;;30.57;48.61
41624;BME280;27319;50.306;18.926;2023-07-29T13:20:54;97611.72;;;30.77;49.76
41624;BME280;27319;50.306;18.926;2023-07-29T13:24:15;97608.75;;;31.09;45.74
41624;BME280;27319;50.306;18.926;2023-07-29T13:28:16;97597.47;;;30.84;49.15
41624;BME280;27319;50.306;18.926;2023-07-29T13:31:57;97586.28;;;29.99;49.40
41624;BME280;27319;50.306;18.926;2023-07-29T13:34:58;97577.09;;;29.58;50.22
41624;BME280;27319;50.306;18.926;2023-07-29T13:37:59;97574.97;;;29.96;51.47
41624;BME280;27319;50.306;18.926;2023-07-29T13:41:00;97581.97;;;30.20;47.06
41624;BME280;27319;50.306;18.926;2023-07-29T13:44:02;97578.66;;;30.45;48.88
41624;BME280;27319;50.306;18.926;2023-07-29T13:47:22;97580.69;;;31.11;47.59
41624;BME280;27319;50.306;18.926;2023-07-29T13:51:23;97580.06;;;31.14;47.44
41624;BME280;27319;50.306;18.926;2023-07-29T13:55:24;97572.81;;;30.82;45.04
41624;BME280;27319;50.306;18.926;2023-07-29T13:59:25;97572.66;;;30.65;45.15
41624;BME280;27319;50.306;18.926;2023-07-29T14:03:26;97568.53;;;30.63;43.78
41624;BME280;27319;50.306;18.926;2023-07-29T14:07:27;97554.22;;;30.47;44.57
41624;BME280;27319;50.306;18.926;2023-07-29T14:11:27;97552.44;;;30.29;42.72
41624;BME280;27319;50.306;18.926;2023-07-29T14:15:28;97551.06;;;30.76;45.29
41624;BME280;27319;50.306;18.926;2023-07-29T14:19:29;97559.59;;;30.30;45.23
41624;BME280;27319;50.306;18.926;2023-07-29T14:23:30;97544.84;;;30.21;45.39
41624;BME280;27319;50.306;18.926;2023-07-29T14:27:31;97534.03;;;30.33;46.25
41624;BME280;27319;50.306;18.926;2023-07-29T14:31:32;97535.41;;;30.09;48.50
41624;BME280;27319;50.306;18.926;2023-07-29T14:35:32;97524.75;;;29.48;47.62
41624;BME280;27319;50.306;18.926;2023-07-29T14:39:13;97526.00;;;29.56;51.38
41624;BME280;27319;50.306;18.926;2023-07-29T14:42:34;97524.88;;;29.11;48.37
41624;BME280;27319;50.306;18.926;2023-07-29T14:46:35;97519.13;;;29.53;48.52
41624;BME280;27319;50.306;18.926;2023-07-29T14:50:04;97506.88;;;29.27;51.34
41624;BME280;27319;50.306;18.926;2023-07-29T14:53:05;97517.94;;;28.95;52.26
41624;BME280;27319;50.306;18.926;2023-07-29T14:56:26;97513.19;;;28.51;52.58
41624;BME280;27319;50.306;18.926;2023-07-29T15:00:27;97517.66;;;28.47;53.47
41624;BME280;27319;50.306;18.926;2023-07-29T15:04:28;97518.09;;;29.04;51.42
41624;BME280;27319;50.306;18.926;2023-07-29T15:08:29;97523.28;;;29.37;49.26
41624;BME280;27319;50.306;18.926;2023-07-29T15:12:29;97525.00;;;28.88;51.59
41624;BME280;27319;50.306;18.926;2023-07-29T15:16:30;97526.50;;;29.12;50.66
41624;BME280;27319;50.306;18.926;2023-07-29T15:20:31;97541.59;;;29.65;49.16
41624;BME280;27319;50.306;18.926;2023-07-29T15:24:13;97536.06;;;29.65;49.78
41624;BME280;27319;50.306;18.926;2023-07-29T15:27:33;97537.00;;;29.29;49.94
41624;BME280;27319;50.306;18.926;2023-07-29T15:31:35;97557.16;;;29.75;52.17
41624;BME280;27319;50.306;18.926;2023-07-29T15:35:38;97546.59;;;30.04;47.72
41624;BME280;27319;50.306;18.926;2023-07-29T15:39:19;97543.09;;;29.98;48.84
41624;BME280;27319;50.306;18.926;2023-07-29T15:42:39;97540.69;;;29.38;51.29
41624;BME280;27319;50.306;18.926;2023-07-29T15:46:42;97542.63;;;28.18;52.84
41624;BME280;27319;50.306;18.926;2023-07-29T15:50:23;97537.66;;;27.97;54.53
41624;BME280;27319;50.306;18.926;2023-07-29T15:53:24;97533.19;;;27.54;57.06
41624;BME280;27319;50.306;18.926;2023-07-29T15:56:29;97527.94;;;27.00;56.48
41624;BME280;27319;50.306;18.926;2023-07-29T15:59:31;97524.75;;;27.17;55.43
41624;BME280;27319;50.306;18.926;2023-07-29T16:02:32;97516.94;;;26.95;56.04
41624;BME280;27319;50.306;18.926;2023-07-29T16:05:33;97510.28;;;26.73;56.96
41624;BME280;27319;50.306;18.926;2023-07-29T16:08:54;97497.31;;;26.73;58.52
41624;BME280;27319;50.306;18.926;2023-07-29T16:12:55;97492.34;;;26.37;60.01
41624;BME280;27319;50.306;18.926;2023-07-29T16:16:55;97484.16;;;26.32;60.13
41624;BME280;27319;50.306;18.926;2023-07-29T16:20:56;97475.44;;;26.20;62.86
41624;BME280;27319;50.306;18.926;2023-07-29T16:24:57;97481.91;;;25.95;60.39
41624;BME280;27319;50.306;18.926;2023-07-29T16:28:58;97482.19;;;25.89;61.90
41624;BME280;27319;50.306;18.926;2023-07-29T16:32:58;97479.53;;;25.74;62.61
41624;BME280;27319;50.306;18.926;2023-07-29T16:36:39;97486.41;;;25.71;62.92
41624;BME280;27319;50.306;18.926;2023-07-29T16:40:00;97485.13;;;25.49;62.76
41624;BME280;27319;50.306;18.926;2023-07-29T16:43:03;97479.88;;;25.52;64.37
41624;BME280;27319;50.306;18.926;2023-07-29T16:46:23;97466.75;;;25.44;62.86
41624;BME280;27319;50.306;18.926;2023-07-29T16:49:52;97465.38;;;25.42;63.32
41624;BME280;27319;50.306;18.926;2023-07-29T16:53:52;97467.84;;;25.48;63.76
41624;BME280;27319;50.306;18.926;2023-07-29T16:57:18;97470.88;;;25.37;64.16
41624;BME280;27319;50.306;18.926;2023-07-29T17:00:19;97464.34;;;25.28;62.25
41624;BME280;27319;50.306;18.926;2023-07-29T17:03:20;97483.84;;;25.31;62.89
41624;BME280;27319;50.306;18.926;2023-07-29T17:06:41;97480.25;;;25.16;61.57
41624;BME280;27319;50.306;18.926;2023-07-29T17:10:22;97479.53;;;24.65;61.65
41624;BME280;27319;50.306;18.926;2023-07-29T17:13:22;97478.13;;;24.33;61.44
41624;BME280;27319;50.306;18.926;2023-07-29T17:16:44;97477.84;;;24.24;61.37
41624;BME280;27319;50.306;18.926;2023-07-29T17:20:44;97483.06;;;24.31;61.87
41624;BME280;27319;50.306;18.926;2023-07-29T17:24:45;97473.16;;;24.05;61.70
41624;BME280;27319;50.306;18.926;2023-07-29T17:28:45;97476.19;;;24.13;63.96
41624;BME280;27319;50.306;18.926;2023-07-29T17:32:46;97466.00;;;23.94;62.67
41624;BME280;27319;50.306;18.926;2023-07-29T17:36:47;97481.81;;;23.72;63.83
41624;BME280;27319;50.306;18.926;2023-07-29T17:39:55;97496.47;;;23.36;64.49
41624;BME280;27319;50.306;18.926;2023-07-29T17:43:19;97487.69;;;23.29;64.73
41624;BME280;27319;50.306;18.926;2023-07-29T17:47:20;97487.75;;;23.39;66.17
41624;BME280;27319;50.306;18.926;2023-07-29T17:50:46;97481.16;;;23.40;65.19
41624;BME280;27319;50.306;18.926;2023-07-29T17:53:47;97475.59;;;23.25;64.65
41624;BME280;27319;50.306;18.926;2023-07-29T17:57:08;97480.03;;;23.36;64.15
41624;BME280;27319;50.306;18.926;2023-07-29T18:01:08;97494.25;;;23.28;65.60
41624;BME280;27319;50.306;18.926;2023-07-29T18:05:09;97487.25;;;23.05;64.32
41624;BME280;27319;50.306;18.926;2023-07-29T18:09:06;97491.81;;;22.90;66.40
41624;BME280;27319;50.306;18.926;2023-07-29T18:12:07;97499.22;;;22.94;66.70
41624;BME280;27319;50.306;18.926;2023-07-29T18:15:09;97498.13;;;22.90;65.62
41624;BME280;27319;50.306;18.926;2023-07-29T18:18:10;97496.41;;;22.79;67.52
41624;BME280;27319;50.306;18.926;2023-07-29T18:21:31;97506.75;;;22.77;67.75
41624;BME280;27319;50.306;18.926;2023-07-29T18:25:12;97514.66;;;22.69;68.50
41624;BME280;27319;50.306;18.926;2023-07-29T18:28:33;97505.34;;;22.70;68.28
41624;BME280;27319;50.306;18.926;2023-07-29T18:32:34;97499.56;;;22.61;68.64
41624;BME280;27319;50.306;18.926;2023-07-29T18:36:34;97508.22;;;22.27;67.75
41624;BME280;27319;50.306;18.926;2023-07-29T18:39:55;97509.47;;;22.41;68.99
41624;BME280;27319;50.306;18.926;2023-07-29T18:43:12;97516.72;;;22.30;69.25
41624;BME280;27319;50.306;18.926;2023-07-29T18:46:32;97508.41;;;22.15;70.48
41624;BME280;27319;50.306;18.926;2023-07-29T18:50:14;97515.00;;;21.93;71.72
41624;BME280;27319;50.306;18.926;2023-07-29T18:53:14;97525.47;;;22.01;71.45
41624;BME280;27319;50.306;18.926;2023-07-29T18:56:15;97532.59;;;22.02;71.66
41624;BME280;27319;50.306;18.926;2023-07-29T18:59:36;97536.41;;;21.74;73.51
41624;BME280;27319;50.306;18.926;2023-07-29T19:03:37;97550.16;;;21.84;71.43
41624;BME280;27319;50.306;18.926;2023-07-29T19:07:38;97545.06;;;21.93;72.00
41624;BME280;27319;50.306;18.926;2023-07-29T19:11:38;97545.00;;;21.88;73.27
41624;BME280;27319;50.306;18.926;2023-07-29T19:15:39;97542.50;;;21.65;74.28